Aérodrome :
LOGIN :

S'inscrire | Disclaimer

   EN    FR    IT 

 










Légende :    VFR   VFR Marginal   IFR   IFR Intensif   IFR Très Intensif
Visi : 
Plafond : 
>= 8 km
>= 3000ft
5 à 8 km
1000 à 3000 ft
1500m à 5 km
500 à 1000 ft
800 à 1500m
200 à 500 ft
< 800m
< 200 ft
Symboles :   Orages  Brouillard  Fortes neiges  Fortes précipitations  Vent > 20 kt
SIGMETs :   Divers  Orages  Givrage  Turbulence  Onde Orograph.  Cendres Volcan.







- Altitude de l'aérodrome : 587 ft
- Code IATA : XCR
- Voir les cartes d'approche


LFOK - Chalons Vatry

DERNIER METAR :
  • 231000Z AUTO 10016KT CAVOK 13/07 Q1010 BECMG 09005KT

METARs EXPIRÉS :
  • 230930Z AUTO 11014KT CAVOK 12/07 Q1010 NOSIG
  • 230900Z AUTO 10015KT CAVOK 11/07 Q1010 BECMG 09005KT
  • 230830Z AUTO 10013KT CAVOK 09/06 Q1010 NOSIG
  • 230800Z AUTO 09011KT CAVOK 08/05 Q1009 TEMPO BKN008
  • 230730Z AUTO 09011KT CAVOK 07/05 Q1009 TEMPO BKN008

TAF TAF LFOK
Valide du 23 à 06h jusqu'au 24 à 06h UTC


230500Z 2306/2406 09005KT CAVOK
PROB30 2307/2309 BKN008
TEMPO 2316/2320 VRB15G25KT 2000 TSRA BKN020CB
PROB30
TEMPO 2318/2406 3000 RA BKN008
Pas de NOTAMs connus pour ce terrain.



MET'MAP, la Météo Aéronautique d'un coup d'oeil ! - Copyright ORBIFLY Décembre 2007 - Disclaimer

ORBIFLY MET'MAP TEAM :

Programmation & Développement : Alexandra Zaïnal
Conception & Développement : Baudouin d'Aumeries
Co-Programmation & Développement : Marc-Olivier Méhu
Soutien technique & logistique : Manuel Goepfert

Contact : metmap@orbifly.com




SOURCES & CREDITS :

   NOAA